Flight Track Log - Related Links

Times and Time Zones

All times are in EDT time to prevent confusion due to time zone crossing. See the QXE2474 flight status page for this flight to view local times or setup timezone preferences in your user account.


Time Position Orientation Groundspeed Altitude Reporting Facility
EDT Latitude Longitude Course Direction KTS MPH feet Rate Location/Type
Thu 12:13:00 PM 34.3764 -118.6331 335° Northwest  Level FlightAware Approximate
Thu 12:14:00 PM 34.4507 -118.6744 335° Northwest  Level FlightAware Approximate
Thu 12:15:00 PM 34.5280 -118.7057 338° Northwest  Level FlightAware Approximate
Thu 12:16:00 PM 34.6030 -118.7451 336° Northwest  Level FlightAware Approximate
Thu 12:17:00 PM 34.6777 -118.7853 336° Northwest  Level FlightAware Approximate
Thu 12:18:00 PM 34.7524 -118.8256 336° Northwest  Level FlightAware Approximate
Thu 12:19:00 PM 34.8232 -118.8732 321° Northwest  Level FlightAware Approximate
Thu 12:20:00 PM 34.8864 -118.9364 321° Northwest  Level FlightAware Approximate
Thu 12:21:00 PM 34.9498 -118.9993 322° Northwest  Level FlightAware Approximate
Thu 12:22:00 PM 35.0139 -119.0612 322° Northwest  Level FlightAware Approximate
Thu 12:23:00 PM 35.0779 -119.1232 322° Northwest  Level FlightAware Approximate
Thu 12:24:00 PM 35.1419 -119.1853 322° Northwest  Level FlightAware Approximate
Thu 12:25:00 PM 35.2058 -119.2476 322° Northwest  Level FlightAware Approximate
Thu 12:26:00 PM 35.2697 -119.3099 321° Northwest  Level FlightAware Approximate
Thu 12:27:00 PM 35.3336 -119.3723 321° Northwest  Level FlightAware Approximate
Thu 12:28:00 PM 35.3975 -119.4348 321° Northwest  Level FlightAware Approximate
Thu 12:29:00 PM 35.4613 -119.4974 321° Northwest  Level FlightAware Approximate
Thu 12:30:00 PM 35.5251 -119.5602 321° Northwest  Level FlightAware Approximate
Thu 12:31:00 PM 35.5888 -119.6230 321° Northwest  Level FlightAware Approximate
Thu 12:32:00 PM 35.6526 -119.6859 321° Northwest  Level FlightAware Approximate
Thu 12:33:00 PM 35.7161 -119.7492 321° Northwest  Level FlightAware Approximate
Thu 12:34:00 PM 35.7796 -119.8125 321° Northwest  Level FlightAware Approximate
Thu 12:35:00 PM 35.8431 -119.8759 321° Northwest  Level FlightAware Approximate
Thu 12:36:00 PM 35.9066 -119.9394 321° Northwest  Level FlightAware Approximate
Thu 12:37:00 PM 35.9701 -120.0030 321° Northwest  Level FlightAware Approximate
Thu 12:38:00 PM 36.0335 -120.0666 321° Northwest  Level FlightAware Approximate
Thu 12:39:00 PM 36.0959 -120.1318 319° Northwest  Level FlightAware Approximate
Thu 12:40:00 PM 36.1573 -120.1987 319° Northwest  Level FlightAware Approximate
Thu 12:41:00 PM 36.2186 -120.2656 319° Northwest  Level FlightAware Approximate
Thu 12:42:00 PM 36.2806 -120.3315 320° Northwest  Level FlightAware Approximate
Thu 12:43:00 PM 36.3435 -120.3963 320° Northwest  Level FlightAware Approximate
Thu 12:44:00 PM 36.4063 -120.4612 320° Northwest  Level FlightAware Approximate
Thu 12:45:00 PM 36.4691 -120.5263 320° Northwest  Level FlightAware Approximate
Thu 12:46:00 PM 36.5318 -120.5914 320° Northwest  Level FlightAware Approximate
Thu 12:47:00 PM 36.5945 -120.6566 320° Northwest  Level FlightAware Approximate
Thu 12:48:00 PM 36.6572 -120.7219 320° Northwest  Level FlightAware Approximate
Thu 12:49:00 PM 36.7183 -120.7895 315° West  Level FlightAware Approximate
Thu 12:50:00 PM 36.7760 -120.8616 315° West  Level FlightAware Approximate
Thu 12:51:00 PM 36.8337 -120.9339 309° West  Level FlightAware Approximate
Thu 12:52:00 PM 36.8846 -121.0138 309° West  Level FlightAware Approximate
Thu 12:53:00 PM 36.9355 -121.0938 309° West  Level FlightAware Approximate
Thu 12:54:00 PM 36.9885 -121.1715 311° West  Level FlightAware Approximate
Thu 12:55:00 PM 37.0423 -121.2485 311° West  Level FlightAware Approximate
Thu 12:56:00 PM 37.0965 -121.3251 312° West  Level FlightAware Approximate
Thu 12:57:00 PM 37.1510 -121.4015 312° West  Level FlightAware Approximate
Thu 12:58:00 PM 37.2055 -121.4780 312° West  Level FlightAware Approximate
Thu 12:59:00 PM 37.2599 -121.5546 312° West  Level FlightAware Approximate
Thu 01:00:00 PM 37.3142 -121.6312 312° West  Level FlightAware Approximate
Thu 01:01:00 PM 37.3685 -121.7081 312° West  Level FlightAware Approximate
Thu 01:02:00 PM 37.4227 -121.7850 312° West  Level FlightAware Approximate
Thu 01:03:00 PM 37.4756 -121.8634 310° West  Level FlightAware Approximate
Thu 01:04:00 PM 37.5282 -121.9423 310° West  Level FlightAware Approximate
Thu 01:05:00 PM 37.5827 -122.0191 312° West  Level FlightAware Approximate
Thu 01:06:00 PM 37.6380 -122.0950 313° West  Level FlightAware Approximate
Thu 01:07:00 PM 37.6924 -122.1720 310° West  Level FlightAware Approximate
Thu 01:08:00 PM 37.7295 -122.2564 305° West  Level FlightAware Approximate
Thu 01:09:00 PM 37.7765 -122.3410 305° West  Level FlightAware Approximate
Thu 01:10:00 PM 37.8132 -122.4307 299° West  Level FlightAware Approximate
Thu 01:11:00 PM 37.8543 -122.5181 345° North  Level FlightAware Approximate
Thu 01:12:00 PM 37.9293 -122.5552 342° North  Level FlightAware Approximate
Thu 01:13:00 PM 38.0069 -122.5875 342° North  Level FlightAware Approximate
Thu 01:14:00 PM 38.0845 -122.6199 342° North  Level FlightAware Approximate
Thu 01:15:00 PM 38.1621 -122.6528 341° North  Level FlightAware Approximate
Thu 01:16:00 PM 38.2394 -122.6864 339° North  Level FlightAware Approximate
Thu 01:17:00 PM 38.3167 -122.7200 343° North  Level FlightAware Approximate
Thu 01:18:00 PM 38.3940 -122.7535 345° North  Level FlightAware Approximate
Thu 01:19:00 PM 38.4715 -122.7858 339° North  Level FlightAware Approximate
Thu 01:20:00 PM 38.5000 -122.8000 North  Level FlightAware Approximate
Thu 01:21:00 PM 38.5090 -122.8129 North  Level Estimated
Thu 01:22:00 PM 38.5090 -122.8129 North  Level Estimated
Thu 01:23:00 PM 38.5090 -122.8129 North  Level Estimated
Thu 01:24:00 PM 38.5090 -122.8129 North  Level Estimated
Thu 01:25:00 PM 38.5090 -122.8129 North  Level Estimated
Thu 01:26:00 PM 38.5090 -122.8129 North  Level Estimated
Thu 01:27:00 PM 38.5090 -122.8129 North  Level Estimated
Thu 01:28:00 PM 38.5090 -122.8129 North  Level Estimated
Thu 01:29:00 PM 38.5090 -122.8129 North  Level Estimated
Thu 01:30:00 PM 38.5090 -122.8129 North  Level Estimated
Thu 01:31:00 PM 38.5090 -122.8129 North  Level Estimated
Thu 01:32:00 PM 38.5090 -122.8129 North  Level Estimated
Thu 01:33:00 PM 38.5090 -122.8129 North  Level Estimated
Thu 01:34:00 PM 38.5090 -122.8129 North  Level Estimated
Thu 01:35:00 PM 38.5090 -122.8129 North  Level Estimated

Login

Don't have an account? Register now (free) for customized features, flight alerts, and more!